createdAt,value
2023-02-14T02:00:50.130Z,81.77
2023-02-14T02:02:33.973Z,80.80
2023-02-14T02:03:41.746Z,80.47
2023-02-14T02:04:47.098Z,82.09
2023-02-14T02:05:53.965Z,81.86
2023-02-14T02:07:00.666Z,81.60
2023-02-14T02:08:03.169Z,81.39
2023-02-14T02:09:28.910Z,80.94
2023-02-14T02:10:31.297Z,80.66
2023-02-14T02:11:34.496Z,80.55
2023-02-14T02:12:38.259Z,80.38
2023-02-14T02:13:40.667Z,80.25
2023-02-14T02:14:43.672Z,80.45
2023-02-14T02:15:54.425Z,80.42
2023-02-14T02:17:06.448Z,80.68
2023-02-14T02:18:19.049Z,80.61
2023-02-14T02:19:33.490Z,80.16
2023-02-14T02:20:41.896Z,79.35
2023-02-14T02:22:21.809Z,79.29
2023-02-14T02:23:42.210Z,79.31
2023-02-14T02:24:50.241Z,79.38
2023-02-14T02:26:30.064Z,79.14
2023-02-14T02:27:53.632Z,79.10
2023-02-14T02:29:19.951Z,79.24
2023-02-14T02:30:43.870Z,79.07
2023-02-14T02:32:08.262Z,79.21
2023-02-14T02:33:13.281Z,79.21
2023-02-14T02:34:53.177Z,79.52
2023-02-14T02:36:09.085Z,79.27
2023-02-14T02:37:38.593Z,79.58
2023-02-14T02:39:08.314Z,79.54
2023-02-14T02:40:29.073Z,79.41
2023-02-14T02:41:46.813Z,79.39
2023-02-14T02:43:02.789Z,79.65
2023-02-14T02:44:16.919Z,79.77
2023-02-14T02:45:29.448Z,79.66
2023-02-14T02:46:49.101Z,79.87
2023-02-14T02:48:11.163Z,79.98
2023-02-14T02:50:08.795Z,79.89
2023-02-14T02:51:36.938Z,79.94
2023-02-14T02:53:07.328Z,80.31
2023-02-14T02:54:26.302Z,80.45
2023-02-14T02:55:53.194Z,80.35
2023-02-14T02:57:00.125Z,80.09
2023-02-14T02:58:03.366Z,79.96
2023-02-14T02:59:20.964Z,79.85
2023-02-14T03:00:25.170Z,79.35
2023-02-14T03:01:31.672Z,79.16
2023-02-14T03:03:00.189Z,79.06
2023-02-14T03:04:25.643Z,78.86
2023-02-14T03:05:29.433Z,78.82
2023-02-14T03:06:32.981Z,78.83
2023-02-14T03:07:37.536Z,78.81
2023-02-14T03:08:39.854Z,78.82
2023-02-14T03:09:42.258Z,78.83
2023-02-14T03:10:45.099Z,78.76
2023-02-14T03:12:25.850Z,78.77
2023-02-14T03:13:37.641Z,79.00
2023-02-14T03:14:55.646Z,79.06
2023-02-14T03:16:27.317Z,80.04
2023-02-14T03:17:36.920Z,79.83
2023-02-14T03:19:24.048Z,79.80
2023-02-14T03:20:41.817Z,79.74
2023-02-14T03:22:05.788Z,79.40
2023-02-14T03:23:30.030Z,79.47
2023-02-14T03:25:03.794Z,79.59
2023-02-14T03:26:19.046Z,79.80
2023-02-14T03:27:33.002Z,80.04
2023-02-14T03:29:05.324Z,80.27
2023-02-14T03:30:33.590Z,80.13
2023-02-14T03:31:56.102Z,80.07
2023-02-14T03:33:14.178Z,80.14
2023-02-14T03:34:35.546Z,79.64
2023-02-14T03:36:02.055Z,79.37
2023-02-14T03:37:20.236Z,79.40
2023-02-14T03:38:31.697Z,79.48
2023-02-14T03:39:45.873Z,79.62
2023-02-14T03:40:54.768Z,79.97
2023-02-14T03:42:06.353Z,80.37
2023-02-14T03:43:13.334Z,80.29
2023-02-14T03:44:21.520Z,80.01
2023-02-14T03:45:32.929Z,80.01
2023-02-14T03:46:44.666Z,80.15
2023-02-14T03:47:48.861Z,79.78
2023-02-14T03:48:54.172Z,79.64
2023-02-14T03:50:04.437Z,79.67
2023-02-14T03:51:09.685Z,79.74
2023-02-14T03:52:14.185Z,79.65
2023-02-14T03:53:21.846Z,79.58
2023-02-14T03:54:25.926Z,79.63
2023-02-14T03:55:54.536Z,79.87
2023-02-14T03:57:21.983Z,79.69
2023-02-14T03:58:32.860Z,79.40
2023-02-14T03:59:35.608Z,79.49
2023-02-14T04:00:41.273Z,79.56
2023-02-14T04:01:49.838Z,79.61
2023-02-14T04:02:56.384Z,79.52
2023-02-14T04:04:00.772Z,79.58
2023-02-14T04:05:15.567Z,79.81
2023-02-14T04:06:20.152Z,80.39
2023-02-14T04:07:23.897Z,80.88
2023-02-14T04:08:28.842Z,80.50
2023-02-14T04:09:31.207Z,80.45
2023-02-14T04:10:34.077Z,80.59
2023-02-14T04:11:38.614Z,80.63
2023-02-14T04:12:40.998Z,80.69
2023-02-14T04:13:43.360Z,80.62
2023-02-14T04:14:45.753Z,80.67
2023-02-14T04:15:48.172Z,80.85
2023-02-14T04:17:09.580Z,80.88
2023-02-14T04:18:30.353Z,80.94
2023-02-14T04:19:32.728Z,80.88
2023-02-14T04:20:35.453Z,80.82
2023-02-14T04:21:37.844Z,80.61
2023-02-14T04:22:40.203Z,80.17
2023-02-14T04:23:42.649Z,79.95
2023-02-14T04:24:45.081Z,80.12
2023-02-14T04:25:47.507Z,80.08
2023-02-14T04:27:10.168Z,79.91
2023-02-14T04:28:13.613Z,79.62
2023-02-14T04:29:16.019Z,79.24
2023-02-14T04:30:20.885Z,78.95
2023-02-14T04:31:23.399Z,78.85
2023-02-14T04:32:25.834Z,79.06
2023-02-14T04:33:28.298Z,79.16
2023-02-14T04:34:30.671Z,79.22
2023-02-14T04:35:33.053Z,79.57
2023-02-14T04:36:35.374Z,79.41
2023-02-14T04:37:37.912Z,79.04
2023-02-14T04:38:40.502Z,78.90
2023-02-14T04:39:42.856Z,79.14
2023-02-14T04:40:45.250Z,79.31
2023-02-14T04:41:47.583Z,79.63
2023-02-14T04:42:49.982Z,80.32
2023-02-14T04:43:52.314Z,80.13
2023-02-14T04:44:54.674Z,80.08
2023-02-14T04:45:57.133Z,79.64
2023-02-14T04:46:59.705Z,78.82
2023-02-14T04:48:02.034Z,78.53
2023-02-14T04:49:04.498Z,78.10
2023-02-14T04:50:07.620Z,78.10
2023-02-14T04:51:10.133Z,78.53
2023-02-14T04:52:13.288Z,78.57
2023-02-14T04:53:15.624Z,78.58
2023-02-14T04:54:18.009Z,78.37
2023-02-14T04:55:20.362Z,78.31
2023-02-14T04:56:22.757Z,78.25
2023-02-14T04:57:25.148Z,78.44
2023-02-14T04:58:27.573Z,78.58
2023-02-14T04:59:30.126Z,78.40
2023-02-14T05:00:32.512Z,78.42
2023-02-14T05:01:34.908Z,78.33
2023-02-14T05:02:37.396Z,78.01
2023-02-14T05:03:39.741Z,78.27
2023-02-14T05:04:42.175Z,78.46
2023-02-14T05:05:44.526Z,78.74
2023-02-14T05:06:47.073Z,78.56
2023-02-14T05:07:49.455Z,78.57
2023-02-14T05:08:51.795Z,78.73
2023-02-14T05:09:54.171Z,78.90
2023-02-14T05:10:56.687Z,78.75
2023-02-14T05:11:59.206Z,78.88
2023-02-14T05:13:02.024Z,78.76
2023-02-14T05:14:04.492Z,78.68
2023-02-14T05:15:07.103Z,78.83
2023-02-14T05:16:09.553Z,79.05
2023-02-14T05:17:11.985Z,79.06
2023-02-14T05:18:14.467Z,79.30
2023-02-14T05:19:16.840Z,79.56
2023-02-14T05:20:19.277Z,79.65
2023-02-14T05:21:24.071Z,79.87
2023-02-14T05:22:26.400Z,79.75
2023-02-14T05:23:28.763Z,79.45
2023-02-14T05:24:31.296Z,79.02
2023-02-14T05:25:33.640Z,78.77
2023-02-14T05:26:35.972Z,78.37
2023-02-14T05:27:38.377Z,79.30
2023-02-14T05:28:41.172Z,79.08
2023-02-14T05:29:43.577Z,79.15
2023-02-14T05:30:46.524Z,78.74
2023-02-14T05:31:49.033Z,79.25
2023-02-14T05:32:51.418Z,82.42
2023-02-14T05:33:53.799Z,81.34
2023-02-14T05:34:56.177Z,80.81
2023-02-14T05:36:00.298Z,80.57
2023-02-14T05:37:03.671Z,80.57
2023-02-14T05:38:06.100Z,80.11
2023-02-14T05:39:08.434Z,80.07
2023-02-14T05:40:13.518Z,79.90
2023-02-14T05:41:15.948Z,79.92
2023-02-14T05:42:18.344Z,79.71
2023-02-14T05:43:21.561Z,79.40
2023-02-14T05:44:23.986Z,79.45
2023-02-14T05:45:26.512Z,79.79
2023-02-14T05:46:28.931Z,79.89
2023-02-14T05:47:31.529Z,79.82
2023-02-14T05:48:34.209Z,79.41
2023-02-14T05:49:36.778Z,79.17
2023-02-14T05:50:39.324Z,79.34
2023-02-14T05:51:43.747Z,79.33
2023-02-14T05:52:46.086Z,79.19
2023-02-14T05:53:48.491Z,79.78
2023-02-14T05:54:51.125Z,80.78
2023-02-14T05:55:53.496Z,80.81
2023-02-14T05:56:56.488Z,80.45
2023-02-14T05:57:59.016Z,80.72
2023-02-14T05:59:01.409Z,80.90
2023-02-14T06:00:06.628Z,80.67
2023-02-14T06:01:09.129Z,80.42
2023-02-14T06:02:11.939Z,80.23
2023-02-14T06:03:14.296Z,80.47
2023-02-14T06:04:16.707Z,80.92
2023-02-14T06:05:20.271Z,81.12
2023-02-14T06:06:22.609Z,81.20
2023-02-14T06:07:25.224Z,80.91
2023-02-14T06:08:27.644Z,80.44
2023-02-14T06:09:30.066Z,79.88
2023-02-14T06:10:32.498Z,79.99
2023-02-14T06:11:34.954Z,80.20
2023-02-14T06:12:37.504Z,80.40
2023-02-14T06:13:41.595Z,80.63
2023-02-14T06:14:45.200Z,80.97
2023-02-14T06:15:47.630Z,81.05
2023-02-14T06:16:50.084Z,81.21
2023-02-14T06:17:54.508Z,81.75
2023-02-14T06:18:56.888Z,81.80
2023-02-14T06:19:59.235Z,81.98
2023-02-14T06:21:01.887Z,81.97
2023-02-14T06:22:04.922Z,81.94
2023-02-14T06:23:07.264Z,82.07
2023-02-14T06:24:09.718Z,82.11
2023-02-14T06:25:12.070Z,82.38
2023-02-14T06:26:14.445Z,82.60
2023-02-14T06:27:17.020Z,82.64
2023-02-14T06:28:19.370Z,82.77
2023-02-14T06:29:21.752Z,82.81
2023-02-14T06:30:24.711Z,82.73
2023-02-14T06:31:27.336Z,82.72
2023-02-14T06:32:29.740Z,82.92
2023-02-14T06:33:32.091Z,82.98
2023-02-14T06:34:34.590Z,83.21
2023-02-14T06:35:36.953Z,83.02
2023-02-14T06:36:39.276Z,82.73
2023-02-14T06:37:45.333Z,82.62
2023-02-14T06:38:48.688Z,82.08
2023-02-14T06:39:52.918Z,81.72
2023-02-14T06:40:55.488Z,81.75
2023-02-14T06:41:57.878Z,82.25
2023-02-14T06:43:00.426Z,82.63
2023-02-14T06:44:03.852Z,82.26
2023-02-14T06:45:10.101Z,81.52
2023-02-14T06:46:12.595Z,81.57
2023-02-14T06:47:15.217Z,81.80
2023-02-14T06:48:21.695Z,82.29
2023-02-14T06:49:24.666Z,82.79
2023-02-14T06:50:27.313Z,82.72
2023-02-14T06:51:34.306Z,82.78
2023-02-14T06:52:38.022Z,82.91
2023-02-14T06:53:44.926Z,82.96
2023-02-14T06:54:49.835Z,83.10
2023-02-14T06:55:52.308Z,83.44
2023-02-14T06:56:56.224Z,83.65
2023-02-14T06:58:01.755Z,83.60
2023-02-14T06:59:11.152Z,83.72
2023-02-14T07:00:16.752Z,83.78
2023-02-14T07:01:19.331Z,83.68
2023-02-14T07:02:24.697Z,83.68
2023-02-14T07:03:27.663Z,83.93
2023-02-14T07:04:31.362Z,83.72
2023-02-14T07:05:38.385Z,83.44
2023-02-14T07:06:40.892Z,83.31
2023-02-14T07:07:44.161Z,83.37
2023-02-14T07:08:48.591Z,83.12
2023-02-14T07:09:52.435Z,83.00
2023-02-14T07:10:58.737Z,82.97
2023-02-14T07:12:02.523Z,82.91
2023-02-14T07:13:05.598Z,82.96
2023-02-14T07:14:07.984Z,83.04
2023-02-14T07:15:12.411Z,83.14
2023-02-14T07:16:14.822Z,83.32
2023-02-14T07:17:17.420Z,83.61
2023-02-14T07:18:19.802Z,83.74
2023-02-14T07:19:22.204Z,83.73
2023-02-14T07:20:25.009Z,83.76
2023-02-14T07:21:27.407Z,83.87
2023-02-14T07:22:30.403Z,83.92
2023-02-14T07:23:33.148Z,83.87
2023-02-14T07:24:35.578Z,83.82
2023-02-14T07:25:38.410Z,83.84
2023-02-14T07:26:40.791Z,83.83
2023-02-14T07:27:43.741Z,83.84
2023-02-14T07:28:49.135Z,84.07
2023-02-14T07:29:51.735Z,84.38
2023-02-14T07:30:54.403Z,84.80
2023-02-14T07:31:57.074Z,84.40
2023-02-14T07:32:59.789Z,84.19
2023-02-14T07:34:02.255Z,84.43
2023-02-14T07:35:05.105Z,84.60
2023-02-14T07:36:08.826Z,84.55
2023-02-14T07:37:11.342Z,84.21
2023-02-14T07:38:13.780Z,84.17
2023-02-14T07:39:16.264Z,84.40
2023-02-14T07:40:20.133Z,84.09
2023-02-14T07:41:22.632Z,83.89
2023-02-14T07:42:25.056Z,83.67
2023-02-14T07:43:27.834Z,83.53
2023-02-14T07:44:30.356Z,83.71
2023-02-14T07:45:32.783Z,84.51
2023-02-14T07:46:35.349Z,84.56
2023-02-14T07:47:38.143Z,84.66
2023-02-14T07:48:40.657Z,84.45
2023-02-14T07:49:43.123Z,83.99
2023-02-14T07:50:45.636Z,84.10
2023-02-14T07:51:48.090Z,83.93
2023-02-14T07:52:50.663Z,83.61
2023-02-14T07:53:53.118Z,83.46
2023-02-14T07:54:57.425Z,83.34
2023-02-14T07:56:01.764Z,83.52
2023-02-14T07:57:07.218Z,84.27
2023-02-14T07:58:17.204Z,83.83
2023-02-14T07:59:25.955Z,83.58
2023-02-14T08:00:49.134Z,83.80
2023-02-14T08:01:51.885Z,83.45
2023-02-14T08:02:56.099Z,83.47
2023-02-14T08:03:59.416Z,83.50
2023-02-14T08:05:24.638Z,83.37
2023-02-14T08:07:23.117Z,83.32
2023-02-14T08:08:28.016Z,83.39
2023-02-14T08:09:30.571Z,83.08
2023-02-14T08:10:32.971Z,82.81
2023-02-14T08:12:04.891Z,82.64
2023-02-14T08:13:07.369Z,82.91
2023-02-14T08:14:09.767Z,82.55
2023-02-14T08:15:30.665Z,82.33
2023-02-14T08:16:34.765Z,82.15
2023-02-14T08:17:37.259Z,82.15
2023-02-14T08:18:41.597Z,82.01
2023-02-14T08:19:44.034Z,81.82
2023-02-14T08:20:49.859Z,81.92
2023-02-14T08:21:52.525Z,81.42
2023-02-14T08:22:54.995Z,81.71
2023-02-14T08:23:57.908Z,81.34
2023-02-14T08:25:00.271Z,81.21
2023-02-14T08:26:04.858Z,81.44
2023-02-14T08:27:07.406Z,80.76
2023-02-14T08:28:10.351Z,80.51
2023-02-14T08:29:13.370Z,80.30
2023-02-14T08:30:16.926Z,80.31
2023-02-14T08:31:36.083Z,80.78
2023-02-14T08:32:38.922Z,80.67
2023-02-14T08:33:43.434Z,80.71
2023-02-14T08:34:45.935Z,80.53
2023-02-14T08:35:48.817Z,80.48
2023-02-14T08:36:52.159Z,80.45
2023-02-14T08:37:55.087Z,80.24
2023-02-14T08:38:57.937Z,80.13
2023-02-14T08:40:00.465Z,80.24
2023-02-14T08:41:44.743Z,80.03
2023-02-14T08:42:47.703Z,79.41
2023-02-14T08:43:50.526Z,79.49
2023-02-14T08:45:10.767Z,79.39
2023-02-14T08:46:15.146Z,79.06
2023-02-14T08:47:23.555Z,79.06
2023-02-14T08:48:37.374Z,79.03
2023-02-14T08:49:42.670Z,78.56
2023-02-14T08:50:52.221Z,77.99
2023-02-14T08:52:03.094Z,77.19
2023-02-14T08:53:13.802Z,77.49
2023-02-14T08:54:26.985Z,77.56
2023-02-14T08:56:27.007Z,77.48
2023-02-14T08:57:38.824Z,77.05
2023-02-14T08:59:01.033Z,76.90
2023-02-14T09:00:07.408Z,77.09
2023-02-14T09:01:11.996Z,76.98
2023-02-14T09:02:17.958Z,77.53
2023-02-14T09:03:35.178Z,77.40
2023-02-14T09:04:39.788Z,76.72
2023-02-14T09:05:43.132Z,76.01
2023-02-14T09:06:45.631Z,75.87
2023-02-14T09:07:47.978Z,75.78
2023-02-14T09:08:50.741Z,75.49
2023-02-14T09:09:53.114Z,75.04
2023-02-14T09:10:55.597Z,74.98
2023-02-14T09:11:58.120Z,74.76
2023-02-14T09:13:00.481Z,74.57
2023-02-14T09:14:03.065Z,74.34
2023-02-14T09:15:05.834Z,74.49
2023-02-14T09:16:10.768Z,74.38
2023-02-14T09:17:13.818Z,73.74
2023-02-14T09:18:16.476Z,72.77
2023-02-14T09:19:18.909Z,72.38
2023-02-14T09:20:21.429Z,71.99
2023-02-14T09:21:26.976Z,71.34
2023-02-14T09:22:29.464Z,71.32
2023-02-14T09:23:31.915Z,71.23
2023-02-14T09:24:36.640Z,70.96
2023-02-14T09:25:39.092Z,70.97
2023-02-14T09:26:42.386Z,70.78
2023-02-14T09:27:44.773Z,70.67
2023-02-14T09:28:47.920Z,70.13
2023-02-14T09:29:50.449Z,70.10
2023-02-14T09:30:54.465Z,70.20
2023-02-14T09:31:59.823Z,69.89
2023-02-14T09:33:05.397Z,69.47
2023-02-14T09:34:07.826Z,69.68
2023-02-14T09:35:29.138Z,69.41
2023-02-14T09:36:34.063Z,68.71
2023-02-14T09:37:41.560Z,69.20
2023-02-14T09:38:45.727Z,69.04
2023-02-14T09:40:03.154Z,68.57
2023-02-14T09:41:35.389Z,67.83
2023-02-14T09:43:06.747Z,66.37
2023-02-14T09:44:26.742Z,66.02
2023-02-14T09:45:31.477Z,65.24
2023-02-14T09:46:43.353Z,65.84
2023-02-14T09:47:55.912Z,66.72
2023-02-14T09:49:01.307Z,66.96
2023-02-14T09:50:18.730Z,66.95
2023-02-14T09:51:27.420Z,66.79
2023-02-14T09:52:32.700Z,67.02
2023-02-14T09:54:12.600Z,67.24
2023-02-14T09:55:18.246Z,67.15
2023-02-14T09:56:40.047Z,66.86
2023-02-14T09:58:08.397Z,66.60
2023-02-14T09:59:35.028Z,65.91
2023-02-14T10:00:46.834Z,65.72
2023-02-14T10:01:58.976Z,65.82
2023-02-14T10:03:25.808Z,65.38
2023-02-14T10:04:48.034Z,64.85
2023-02-14T10:06:28.137Z,64.62
2023-02-14T10:07:57.852Z,64.92
2023-02-14T10:09:32.662Z,65.16
2023-02-14T10:10:43.266Z,65.11
2023-02-14T10:11:47.723Z,64.98
2023-02-14T10:13:00.844Z,64.99
2023-02-14T10:14:17.758Z,64.90
2023-02-14T10:15:34.658Z,64.68
2023-02-14T10:16:44.364Z,64.38
2023-02-14T10:17:52.910Z,64.03
2023-02-14T10:19:04.479Z,64.01
2023-02-14T10:20:20.051Z,63.73
2023-02-14T10:21:30.223Z,63.73
2023-02-14T10:22:42.915Z,63.64
2023-02-14T10:23:54.545Z,63.40
2023-02-14T10:25:08.660Z,63.26
2023-02-14T10:26:16.347Z,63.22
2023-02-14T10:27:42.384Z,62.84
2023-02-14T10:28:49.912Z,62.62
2023-02-14T10:29:52.287Z,62.37
2023-02-14T10:31:06.286Z,61.95
2023-02-14T10:32:14.848Z,61.88
2023-02-14T10:33:19.734Z,61.80
2023-02-14T10:34:46.339Z,61.73
2023-02-14T10:35:53.252Z,61.35
2023-02-14T10:37:27.993Z,61.34
2023-02-14T10:38:44.255Z,61.45
2023-02-14T10:40:00.743Z,61.24
2023-02-14T10:41:33.071Z,60.99
2023-02-14T10:42:55.261Z,60.99
2023-02-14T10:46:18.536Z,60.94
2023-02-14T10:49:43.110Z,61.04
2023-02-14T10:51:03.703Z,60.77
2023-02-14T10:52:29.250Z,60.81
2023-02-14T10:53:50.188Z,61.04
2023-02-14T10:54:58.573Z,60.90
2023-02-14T10:56:08.570Z,60.62
2023-02-14T10:57:33.039Z,60.70
2023-02-14T10:58:38.853Z,60.49
2023-02-14T11:00:02.753Z,60.13
2023-02-14T11:01:13.179Z,59.97
2023-02-14T11:02:18.174Z,59.96
2023-02-14T11:03:20.577Z,59.90
2023-02-14T11:04:26.440Z,59.80
2023-02-14T11:05:31.749Z,59.75
2023-02-14T11:06:34.567Z,59.65
2023-02-14T11:07:37.331Z,59.60
2023-02-14T11:08:42.347Z,59.66
2023-02-14T11:09:45.248Z,59.55
2023-02-14T11:10:48.478Z,59.47
2023-02-14T11:11:56.319Z,59.46
2023-02-14T11:12:58.833Z,59.43
2023-02-14T11:15:27.816Z,59.17
2023-02-14T11:16:36.703Z,59.02
2023-02-14T11:17:39.757Z,58.51
2023-02-14T11:18:42.466Z,58.46
2023-02-14T11:20:03.083Z,58.34
2023-02-14T11:21:10.963Z,58.26
2023-02-14T11:22:30.226Z,58.62
2023-02-14T11:23:35.986Z,58.69
2023-02-14T11:24:44.070Z,58.07
2023-02-14T11:25:55.147Z,58.54
2023-02-14T11:27:15.390Z,58.41
2023-02-14T11:28:24.105Z,58.25
2023-02-14T11:29:42.819Z,58.01
2023-02-14T11:30:56.992Z,58.00
2023-02-14T11:32:15.099Z,58.24
2023-02-14T11:33:30.708Z,58.31
2023-02-14T11:35:02.739Z,58.26
2023-02-14T11:36:13.803Z,58.09
2023-02-14T11:37:59.676Z,57.91
2023-02-14T11:39:23.705Z,57.56
2023-02-14T11:40:51.651Z,57.08
2023-02-14T11:41:59.967Z,56.84
2023-02-14T11:43:19.882Z,57.12
2023-02-14T11:44:30.645Z,57.05
2023-02-14T11:45:39.116Z,56.77
2023-02-14T11:46:52.810Z,56.49
2023-02-14T11:48:38.420Z,56.05
2023-02-14T11:54:07.610Z,55.77
2023-02-14T11:55:34.837Z,55.84
2023-02-14T11:57:14.050Z,55.10
2023-02-14T11:58:32.410Z,55.02
2023-02-14T11:59:51.638Z,55.04
2023-02-14T12:00:54.985Z,54.77
2023-02-14T12:02:02.900Z,55.01
2023-02-14T12:03:07.370Z,54.74
2023-02-14T12:04:18.954Z,54.83
2023-02-14T12:05:46.508Z,54.91
2023-02-14T12:06:49.601Z,55.22
2023-02-14T12:07:58.421Z,55.55
2023-02-14T12:09:25.790Z,55.30
2023-02-14T12:10:38.296Z,55.09
2023-02-14T12:11:41.414Z,55.00
2023-02-14T12:12:51.004Z,55.15
2023-02-14T12:13:56.151Z,55.26
2023-02-14T12:15:54.604Z,54.81
2023-02-14T12:17:11.979Z,54.71
2023-02-14T12:18:29.847Z,54.64
2023-02-14T12:19:54.445Z,54.47
2023-02-14T12:21:13.147Z,54.48
2023-02-14T12:22:20.957Z,54.26
2023-02-14T12:23:35.451Z,54.24
2023-02-14T12:25:00.366Z,54.24
2023-02-14T12:26:09.762Z,54.47
2023-02-14T12:27:12.287Z,54.60
2023-02-14T12:28:23.686Z,54.85
2023-02-14T12:29:42.152Z,54.93
2023-02-14T12:30:45.623Z,54.90
2023-02-14T12:31:58.928Z,54.70
2023-02-14T12:33:05.065Z,54.67
2023-02-14T12:34:11.312Z,54.65
2023-02-14T12:35:48.619Z,54.62
2023-02-14T12:37:29.518Z,54.49
2023-02-14T12:39:16.747Z,54.32
2023-02-14T12:40:21.543Z,53.94
2023-02-14T12:41:44.961Z,53.87
2023-02-14T12:44:07.371Z,54.01
2023-02-14T12:45:24.951Z,53.91
2023-02-14T12:46:40.652Z,53.65
2023-02-14T12:47:53.236Z,53.40
2023-02-14T12:49:28.913Z,53.44
2023-02-14T12:50:46.880Z,53.84
2023-02-14T12:52:00.228Z,53.31
2023-02-14T12:53:21.135Z,53.28
2023-02-14T12:54:44.308Z,53.52
2023-02-14T12:56:10.885Z,52.93
2023-02-14T12:57:43.863Z,52.86
2023-02-14T12:59:12.762Z,52.73
2023-02-14T13:01:29.204Z,52.99
2023-02-14T13:02:46.715Z,52.88
2023-02-14T13:04:13.741Z,53.28
2023-02-14T13:05:18.111Z,53.71
2023-02-14T13:07:10.735Z,53.49
2023-02-14T13:08:49.697Z,53.66
2023-02-14T13:10:32.752Z,53.90
2023-02-14T13:11:50.612Z,54.02
2023-02-14T13:13:04.505Z,53.93
2023-02-14T13:14:31.040Z,53.56
2023-02-14T13:15:53.157Z,53.35
2023-02-14T13:17:18.148Z,53.52
2023-02-14T13:18:48.881Z,53.49
2023-02-14T13:20:03.303Z,53.52
2023-02-14T13:21:13.159Z,53.60
2023-02-14T13:22:19.223Z,53.58
2023-02-14T13:23:35.662Z,53.37
2023-02-14T13:27:23.174Z,53.35
2023-02-14T13:29:50.630Z,53.49
2023-02-14T13:30:55.155Z,53.03
2023-02-14T13:32:01.974Z,53.34
2023-02-14T13:33:10.400Z,53.47
2023-02-14T13:34:28.240Z,53.42
2023-02-14T13:35:32.375Z,53.62
2023-02-14T13:36:36.515Z,53.32
2023-02-14T13:37:39.329Z,53.56
2023-02-14T13:38:48.689Z,53.64
2023-02-14T13:40:01.901Z,53.69
2023-02-14T13:41:05.575Z,53.75
2023-02-14T13:42:08.002Z,54.02
2023-02-14T13:43:10.411Z,53.74
2023-02-14T13:44:38.680Z,53.70
2023-02-14T13:45:41.101Z,53.56
2023-02-14T13:46:48.322Z,53.41
2023-02-14T13:48:03.641Z,53.60
2023-02-14T13:49:24.339Z,53.39
2023-02-14T13:50:27.348Z,53.46
2023-02-14T13:51:53.034Z,53.51
2023-02-14T13:52:55.867Z,53.55
2023-02-14T13:53:59.766Z,53.57
2023-02-14T13:55:07.842Z,53.71
2023-02-14T13:56:12.838Z,53.72
2023-02-14T13:57:36.564Z,53.70
2023-02-14T13:58:55.113Z,53.92
2023-02-14T14:00:19.100Z,54.04
2023-02-14T14:01:30.656Z,53.88
2023-02-14T14:02:44.290Z,53.81
2023-02-14T14:03:57.828Z,53.88
2023-02-14T14:05:03.108Z,53.76
2023-02-14T14:06:10.911Z,53.80
2023-02-14T14:07:13.554Z,53.63
2023-02-14T14:08:25.235Z,53.66
2023-02-14T14:09:43.344Z,53.84
2023-02-14T14:10:48.509Z,54.00
2023-02-14T14:11:51.518Z,54.00
2023-02-14T14:12:53.935Z,53.93
2023-02-14T14:14:01.879Z,54.05
2023-02-14T14:15:07.300Z,54.13
2023-02-14T14:16:27.709Z,54.10
2023-02-14T14:17:35.346Z,53.81
2023-02-14T14:18:43.392Z,53.58
2023-02-14T14:19:47.108Z,53.53
2023-02-14T14:20:49.677Z,53.45
2023-02-14T14:22:09.468Z,53.39
2023-02-14T14:23:45.168Z,53.18
2023-02-14T14:24:59.561Z,52.98
2023-02-14T14:26:02.471Z,53.12
2023-02-14T14:27:20.976Z,53.16
2023-02-14T14:28:26.532Z,53.25
2023-02-14T14:29:31.797Z,53.34
2023-02-14T14:30:34.487Z,53.65
2023-02-14T14:31:41.035Z,53.65
2023-02-14T14:32:45.889Z,53.65
2023-02-14T14:33:57.865Z,53.74
2023-02-14T14:35:04.929Z,53.79
2023-02-14T14:36:13.515Z,53.86
2023-02-14T14:37:19.486Z,53.97
2023-02-14T14:38:53.928Z,54.02
2023-02-14T14:40:02.453Z,54.00
2023-02-14T14:41:04.949Z,54.02
2023-02-14T14:42:18.200Z,54.08
2023-02-14T14:43:33.797Z,54.17
2023-02-14T14:44:38.082Z,54.05
2023-02-14T14:45:43.805Z,54.04
2023-02-14T14:46:46.884Z,54.00
2023-02-14T14:47:54.112Z,54.18
2023-02-14T14:48:57.518Z,54.24
2023-02-14T14:50:07.518Z,54.34
2023-02-14T14:51:21.958Z,54.28
2023-02-14T14:52:37.565Z,54.30
2023-02-14T14:53:47.185Z,54.35
2023-02-14T14:54:49.555Z,54.40
2023-02-14T14:55:52.290Z,54.38
2023-02-14T14:57:01.770Z,54.38
2023-02-14T14:58:09.318Z,54.36
2023-02-14T14:59:29.039Z,54.38
2023-02-14T15:00:34.584Z,54.46
2023-02-14T15:01:39.008Z,54.52
2023-02-14T15:02:41.351Z,54.50
2023-02-14T15:03:43.815Z,54.45
2023-02-14T15:04:46.193Z,54.46
2023-02-14T15:05:50.414Z,54.47
2023-02-14T15:06:52.875Z,54.56
2023-02-14T15:07:55.414Z,54.59
2023-02-14T15:08:57.834Z,54.61
2023-02-14T15:10:00.655Z,54.76
2023-02-14T15:11:11.081Z,54.77
2023-02-14T15:12:38.551Z,54.68
2023-02-14T15:13:53.535Z,54.62
2023-02-14T15:14:58.057Z,54.65
2023-02-14T15:16:03.480Z,54.78
2023-02-14T15:17:18.635Z,54.83
2023-02-14T15:18:21.707Z,54.65
2023-02-14T15:19:33.439Z,54.88
2023-02-14T15:20:36.994Z,55.03
2023-02-14T15:21:44.471Z,55.08
2023-02-14T15:22:49.897Z,55.03
2023-02-14T15:23:52.866Z,55.13
2023-02-14T15:24:55.756Z,55.19
2023-02-14T15:25:58.225Z,55.21
2023-02-14T15:27:02.109Z,55.22
2023-02-14T15:28:04.820Z,55.32
2023-02-14T15:29:07.597Z,55.33
2023-02-14T15:30:19.456Z,55.37
2023-02-14T15:31:22.255Z,55.45
2023-02-14T15:32:26.732Z,55.56
2023-02-14T15:33:31.563Z,55.63
2023-02-14T15:34:36.438Z,55.72
2023-02-14T15:35:42.399Z,55.82
2023-02-14T15:36:49.173Z,55.98
2023-02-14T15:37:52.399Z,56.12
2023-02-14T15:38:56.882Z,56.15
2023-02-14T15:39:59.925Z,56.24
2023-02-14T15:41:03.124Z,56.34
2023-02-14T15:42:06.375Z,56.39
2023-02-14T15:43:29.708Z,56.42
2023-02-14T15:44:32.636Z,56.51
2023-02-14T15:45:35.081Z,56.59
2023-02-14T15:46:39.551Z,56.63
2023-02-14T15:47:44.792Z,56.64
2023-02-14T15:48:48.020Z,56.70
2023-02-14T15:49:50.476Z,56.77
2023-02-14T15:50:56.597Z,56.76
2023-02-14T15:52:02.880Z,56.74
2023-02-14T15:53:17.424Z,56.86
2023-02-14T15:54:26.022Z,56.95
2023-02-14T15:55:28.945Z,57.03
2023-02-14T15:56:43.268Z,57.10
2023-02-14T15:57:55.379Z,57.17
2023-02-14T15:59:00.812Z,57.25
2023-02-14T16:00:11.663Z,57.42
2023-02-14T16:01:14.244Z,57.42
2023-02-14T16:02:17.327Z,57.48
2023-02-14T16:03:22.776Z,57.53
2023-02-14T16:04:31.372Z,57.66
2023-02-14T16:05:34.179Z,57.85
2023-02-14T16:06:44.781Z,58.13
2023-02-14T16:08:03.640Z,58.28
2023-02-14T16:09:26.198Z,58.42
2023-02-14T16:10:31.103Z,58.68
2023-02-14T16:11:38.151Z,58.83
2023-02-14T16:12:42.333Z,59.19
2023-02-14T16:13:46.579Z,59.35
2023-02-14T16:15:20.603Z,59.54
2023-02-14T16:16:23.100Z,59.59
2023-02-14T16:17:34.657Z,59.70
2023-02-14T16:18:45.971Z,59.78
2023-02-14T16:19:48.434Z,59.71
2023-02-14T16:20:51.432Z,59.76
2023-02-14T16:21:57.359Z,60.07
2023-02-14T16:23:22.227Z,60.17
2023-02-14T16:24:24.587Z,60.48
2023-02-14T16:25:26.962Z,60.56
2023-02-14T16:26:30.804Z,60.64
2023-02-14T16:27:33.648Z,61.00
2023-02-14T16:28:38.948Z,61.40
2023-02-14T16:29:41.632Z,61.51
2023-02-14T16:30:46.074Z,61.53
2023-02-14T16:32:16.510Z,61.73
2023-02-14T16:33:22.554Z,61.89
2023-02-14T16:34:26.563Z,62.06
2023-02-14T16:35:29.622Z,62.21
2023-02-14T16:36:33.688Z,62.48
2023-02-14T16:37:36.079Z,62.68
2023-02-14T16:38:44.196Z,62.83
2023-02-14T16:39:47.748Z,62.98
2023-02-14T16:40:52.439Z,63.01
2023-02-14T16:41:56.569Z,63.28
2023-02-14T16:42:59.909Z,63.15
2023-02-14T16:44:02.779Z,63.12
2023-02-14T16:45:05.360Z,62.94
2023-02-14T16:46:12.365Z,63.15
2023-02-14T16:47:17.325Z,63.77
2023-02-14T16:48:19.760Z,63.72
2023-02-14T16:49:23.729Z,63.67
2023-02-14T16:50:26.242Z,64.25
2023-02-14T16:51:33.677Z,64.44
2023-02-14T16:52:36.372Z,64.57
2023-02-14T16:53:38.794Z,64.54
2023-02-14T16:54:41.353Z,64.87
2023-02-14T16:55:43.761Z,65.14
2023-02-14T16:56:52.811Z,65.37
2023-02-14T16:57:55.278Z,65.42
2023-02-14T16:58:58.258Z,65.68
2023-02-14T17:00:00.682Z,65.76
2023-02-14T17:01:03.561Z,65.94
2023-02-14T17:02:06.416Z,65.98
2023-02-14T17:03:11.561Z,65.92
2023-02-14T17:04:14.009Z,65.70
2023-02-14T17:05:16.542Z,65.90
2023-02-14T17:06:24.338Z,65.86
2023-02-14T17:07:29.834Z,65.43
2023-02-14T17:08:32.334Z,65.49
2023-02-14T17:09:40.033Z,65.53
2023-02-14T17:10:44.811Z,66.05